createdAt,value
2023-01-17T00:01:50.638Z,1.40
2023-01-17T00:04:35.979Z,1.30
2023-01-17T00:07:20.979Z,1.30
2023-01-17T00:09:54.401Z,1.20
2023-01-17T00:12:24.578Z,1.20
2023-01-17T00:14:55.128Z,1.60
2023-01-17T00:17:23.343Z,1.50
2023-01-17T00:20:09.220Z,1.30
2023-01-17T00:22:55.573Z,1.63
2023-01-17T00:25:44.327Z,2.03
2023-01-17T00:28:12.308Z,1.35
2023-01-17T00:30:39.002Z,1.67
2023-01-17T00:33:05.729Z,1.75
2023-01-17T00:35:33.129Z,1.50
2023-01-17T00:38:04.606Z,1.42
2023-01-17T00:40:32.011Z,1.70
2023-01-17T00:43:17.408Z,1.60
2023-01-17T00:46:05.168Z,1.48
2023-01-17T00:48:51.007Z,1.35
2023-01-17T00:51:36.851Z,1.70
2023-01-17T00:54:22.683Z,1.65
2023-01-17T00:57:07.964Z,1.58
2023-01-17T00:59:53.257Z,1.60
2023-01-17T01:02:40.395Z,1.73
2023-01-17T01:05:26.595Z,1.92
2023-01-17T01:08:11.765Z,1.70
2023-01-17T01:10:57.294Z,1.55
2023-01-17T01:13:43.784Z,2.10
2023-01-17T01:16:29.655Z,2.10
2023-01-17T01:19:17.120Z,1.33
2023-01-17T01:22:02.456Z,1.83
2023-01-17T01:24:48.194Z,1.50
2023-01-17T01:27:33.508Z,1.80
2023-01-17T01:30:18.735Z,1.92
2023-01-17T01:33:04.144Z,1.98
2023-01-17T01:35:33.172Z,2.00
2023-01-17T01:38:03.867Z,2.00
2023-01-17T01:40:31.459Z,2.03
2023-01-17T01:43:00.735Z,1.95
2023-01-17T01:45:30.279Z,1.98
2023-01-17T01:48:03.285Z,2.10
2023-01-17T01:50:34.487Z,2.00
2023-01-17T01:53:05.020Z,1.75
2023-01-17T01:55:36.635Z,2.35
2023-01-17T01:58:09.585Z,2.50
2023-01-17T02:00:40.815Z,2.22
2023-01-17T02:03:12.935Z,2.25
2023-01-17T02:05:43.660Z,2.78
2023-01-17T02:08:14.361Z,2.58
2023-01-17T02:10:43.912Z,2.30
2023-01-17T02:13:13.426Z,2.70
2023-01-17T02:15:51.599Z,2.72
2023-01-17T02:18:25.187Z,2.60
2023-01-17T02:21:06.715Z,2.97
2023-01-17T02:24:07.455Z,2.78
2023-01-17T02:26:56.626Z,2.88
2023-01-17T02:30:06.038Z,3.30
2023-01-17T02:32:49.052Z,3.53
2023-01-17T02:35:28.028Z,3.75
2023-01-17T02:38:01.490Z,4.25
2023-01-17T02:40:34.645Z,4.75
2023-01-17T02:43:06.750Z,4.78
2023-01-17T02:45:34.355Z,5.45
2023-01-17T02:48:03.386Z,4.97
2023-01-17T02:50:45.684Z,5.03
2023-01-17T02:53:29.417Z,4.95
2023-01-17T02:56:03.017Z,5.07
2023-01-17T02:58:51.264Z,5.22
2023-01-17T03:01:30.065Z,4.65
2023-01-17T03:04:04.004Z,5.13
2023-01-17T03:06:36.226Z,5.30
2023-01-17T03:09:05.064Z,4.50
2023-01-17T03:11:34.029Z,5.72
2023-01-17T03:14:01.653Z,5.50
2023-01-17T03:16:32.792Z,5.75
2023-01-17T03:19:02.036Z,5.63
2023-01-17T03:21:29.726Z,6.25
2023-01-17T03:23:57.302Z,5.95
2023-01-17T03:26:24.879Z,6.63
2023-01-17T03:28:52.485Z,7.05
2023-01-17T03:31:20.853Z,7.00
2023-01-17T03:33:48.516Z,6.25
2023-01-17T03:36:18.509Z,6.80
2023-01-17T03:38:46.038Z,7.00
2023-01-17T03:41:13.788Z,7.22
2023-01-17T03:43:41.325Z,7.55
2023-01-17T03:46:23.612Z,5.40
2023-01-17T03:48:51.258Z,5.47
2023-01-17T03:51:20.321Z,5.45
2023-01-17T03:53:48.422Z,5.68
2023-01-17T03:56:16.661Z,5.95
2023-01-17T03:58:44.417Z,5.75
2023-01-17T04:01:12.651Z,5.40
2023-01-17T04:03:40.635Z,5.38
2023-01-17T04:06:08.518Z,5.45
2023-01-17T04:08:37.455Z,4.82
2023-01-17T04:11:05.225Z,3.70
2023-01-17T04:13:32.775Z,3.58
2023-01-17T04:16:00.502Z,3.92
2023-01-17T04:18:28.454Z,2.95
2023-01-17T04:20:56.085Z,3.40
2023-01-17T04:23:23.796Z,3.33
2023-01-17T04:25:52.782Z,3.53
2023-01-17T04:28:20.403Z,3.80
2023-01-17T04:30:48.026Z,3.50
2023-01-17T04:33:15.748Z,4.05
2023-01-17T04:35:43.272Z,3.67
2023-01-17T04:38:10.853Z,4.10
2023-01-17T04:40:38.389Z,4.30
2023-01-17T04:43:07.321Z,3.75
2023-01-17T04:45:35.036Z,3.80
2023-01-17T04:48:06.624Z,3.90
2023-01-17T04:50:35.032Z,3.33
2023-01-17T04:53:02.616Z,3.75
2023-01-17T04:55:30.165Z,3.67
2023-01-17T04:57:57.711Z,4.10
2023-01-17T05:00:26.697Z,5.15
2023-01-17T05:02:54.299Z,5.22
2023-01-17T05:05:21.980Z,3.97
2023-01-17T05:07:55.098Z,4.97
2023-01-17T05:10:23.033Z,4.90
2023-01-17T05:12:57.826Z,4.82
2023-01-17T05:15:27.662Z,5.03
2023-01-17T05:17:55.894Z,4.97
2023-01-17T05:20:25.019Z,5.72
2023-01-17T05:22:56.372Z,4.72
2023-01-17T05:25:24.305Z,4.53
2023-01-17T05:27:52.076Z,4.57
2023-01-17T05:30:20.394Z,6.43
2023-01-17T05:32:51.169Z,4.80
2023-01-17T05:35:19.598Z,4.55
2023-01-17T05:37:49.014Z,4.43
2023-01-17T05:40:16.910Z,4.40
2023-01-17T05:42:46.954Z,3.78
2023-01-17T05:45:16.821Z,4.03
2023-01-17T05:47:44.630Z,3.58
2023-01-17T05:50:15.207Z,2.08
2023-01-17T05:52:42.954Z,2.00
2023-01-17T05:55:11.200Z,2.10
2023-01-17T05:57:39.883Z,2.13
2023-01-17T06:00:08.926Z,1.65
2023-01-17T06:02:36.694Z,1.40
2023-01-17T06:05:04.795Z,1.17
2023-01-17T06:07:33.962Z,1.20
2023-01-17T06:10:01.810Z,0.82
2023-01-17T06:12:29.475Z,0.55
2023-01-17T06:14:57.111Z,0.45
2023-01-17T06:17:24.646Z,0.90
2023-01-17T06:19:52.259Z,0.85
2023-01-17T06:22:20.086Z,0.70
2023-01-17T06:24:49.052Z,0.80
2023-01-17T06:27:16.890Z,0.70
2023-01-17T06:29:44.470Z,0.52
2023-01-17T06:32:13.253Z,0.75
2023-01-17T06:34:41.324Z,1.05
2023-01-17T06:37:09.372Z,0.88
2023-01-17T06:39:37.016Z,0.60
2023-01-17T06:42:06.171Z,1.00
2023-01-17T06:44:33.777Z,0.95
2023-01-17T06:47:01.395Z,1.05
2023-01-17T06:49:29.005Z,1.15
2023-01-17T06:51:56.674Z,1.15
2023-01-17T06:54:24.248Z,0.80
2023-01-17T06:56:51.787Z,1.58
2023-01-17T06:59:21.508Z,1.30
2023-01-17T07:01:49.128Z,0.93
2023-01-17T07:04:16.632Z,0.90
2023-01-17T07:06:44.816Z,0.80
2023-01-17T07:09:12.550Z,0.80
2023-01-17T07:11:40.373Z,1.33
2023-01-17T07:14:16.339Z,1.30
2023-01-17T07:16:46.118Z,1.23
2023-01-17T07:19:14.121Z,1.05
2023-01-17T07:21:41.687Z,1.05
2023-01-17T07:24:09.972Z,1.15
2023-01-17T07:26:40.120Z,1.10
2023-01-17T07:29:09.098Z,0.80
2023-01-17T07:31:37.938Z,1.23
2023-01-17T07:34:07.302Z,1.20
2023-01-17T07:36:34.919Z,1.15
2023-01-17T07:39:03.758Z,1.85
2023-01-17T07:41:32.650Z,1.17
2023-01-17T07:44:05.590Z,0.90
2023-01-17T07:46:33.089Z,1.00
2023-01-17T07:49:00.854Z,1.23
2023-01-17T07:51:29.941Z,1.58
2023-01-17T07:53:57.663Z,1.40
2023-01-17T07:56:25.707Z,1.27
2023-01-17T07:58:53.341Z,1.30
2023-01-17T08:01:20.956Z,1.40
2023-01-17T08:03:54.771Z,1.00
2023-01-17T08:06:24.208Z,1.73
2023-01-17T08:08:55.073Z,1.10
2023-01-17T08:11:22.766Z,1.65
2023-01-17T08:13:56.093Z,0.88
2023-01-17T08:16:24.549Z,1.42
2023-01-17T08:18:52.207Z,1.02
2023-01-17T08:21:20.095Z,0.88
2023-01-17T08:23:48.758Z,1.08
2023-01-17T08:26:21.419Z,0.68
2023-01-17T08:28:50.391Z,0.85
2023-01-17T08:31:19.732Z,1.63
2023-01-17T08:33:47.331Z,1.13
2023-01-17T08:36:14.916Z,1.05
2023-01-17T08:38:42.449Z,0.93
2023-01-17T08:41:09.965Z,1.13
2023-01-17T08:43:38.813Z,1.20
2023-01-17T08:46:06.549Z,2.05
2023-01-17T08:48:34.253Z,2.72
2023-01-17T08:51:02.504Z,1.48
2023-01-17T08:53:30.081Z,1.83
2023-01-17T08:56:02.123Z,0.95
2023-01-17T08:58:31.073Z,1.30
2023-01-17T09:01:03.073Z,1.55
2023-01-17T09:03:30.864Z,2.33
2023-01-17T09:06:02.997Z,1.52
2023-01-17T09:08:31.497Z,1.40
2023-01-17T09:10:59.260Z,1.83
2023-01-17T09:13:26.878Z,1.30
2023-01-17T09:15:57.228Z,1.83
2023-01-17T09:18:26.562Z,1.02
2023-01-17T09:20:55.735Z,1.83
2023-01-17T09:23:23.423Z,1.83
2023-01-17T09:25:54.428Z,1.58
2023-01-17T09:28:22.566Z,2.22
2023-01-17T09:30:50.208Z,1.23
2023-01-17T09:33:18.457Z,1.60
2023-01-17T09:35:48.125Z,1.38
2023-01-17T09:38:15.947Z,1.25
2023-01-17T09:40:46.749Z,1.40
2023-01-17T09:43:23.285Z,1.10
2023-01-17T09:45:51.149Z,0.93
2023-01-17T09:48:26.639Z,0.93
2023-01-17T09:51:00.296Z,1.35
2023-01-17T09:53:32.308Z,1.85
2023-01-17T09:56:04.482Z,1.65
2023-01-17T09:58:39.816Z,1.70
2023-01-17T10:01:13.234Z,1.30
2023-01-17T10:03:52.958Z,1.20
2023-01-17T10:06:36.919Z,0.90
2023-01-17T10:09:31.099Z,0.93
2023-01-17T10:12:14.208Z,1.55
2023-01-17T10:15:03.130Z,1.33
2023-01-17T10:17:38.959Z,1.25
2023-01-17T10:20:34.022Z,1.48
2023-01-17T10:23:26.773Z,0.90
2023-01-17T10:25:57.019Z,1.52
2023-01-17T10:28:28.581Z,1.70
2023-01-17T10:31:01.588Z,1.30
2023-01-17T10:33:32.272Z,1.10
2023-01-17T10:36:03.697Z,1.10
2023-01-17T10:38:36.154Z,0.93
2023-01-17T10:41:09.448Z,1.15
2023-01-17T10:43:47.488Z,1.10
2023-01-17T10:46:19.947Z,1.42
2023-01-17T10:48:49.463Z,1.23
2023-01-17T10:51:59.720Z,1.23
2023-01-17T10:54:54.424Z,1.30
2023-01-17T10:57:24.783Z,0.70
2023-01-17T10:59:53.520Z,1.48
2023-01-17T11:02:25.393Z,1.02
2023-01-17T11:04:54.752Z,0.68
2023-01-17T11:07:24.861Z,1.13
2023-01-17T11:09:55.576Z,1.10
2023-01-17T11:12:30.485Z,1.92
2023-01-17T11:15:01.958Z,1.10
2023-01-17T11:17:30.572Z,0.80
2023-01-17T11:20:20.256Z,1.00
2023-01-17T11:23:13.583Z,0.88
2023-01-17T11:25:50.482Z,1.00
2023-01-17T11:28:26.021Z,0.73
2023-01-17T11:30:55.781Z,0.88
2023-01-17T11:33:46.747Z,0.95
2023-01-17T11:36:19.424Z,0.95
2023-01-17T11:38:58.875Z,1.25
2023-01-17T11:41:29.213Z,0.70
2023-01-17T11:43:58.332Z,0.90
2023-01-17T11:46:28.131Z,0.80
2023-01-17T11:48:57.614Z,0.70
2023-01-17T11:51:30.833Z,0.90
2023-01-17T11:54:12.116Z,0.80
2023-01-17T11:56:44.894Z,1.20
2023-01-17T11:59:25.054Z,1.08
2023-01-17T12:02:05.690Z,1.25
2023-01-17T12:04:38.887Z,1.08
2023-01-17T12:07:18.658Z,0.95
2023-01-17T12:09:51.125Z,1.10
2023-01-17T12:12:47.485Z,1.10
2023-01-17T12:15:26.356Z,1.20
2023-01-17T12:18:13.501Z,0.77
2023-01-17T12:20:49.272Z,1.08
2023-01-17T12:23:32.022Z,1.00
2023-01-17T12:26:19.630Z,0.98
2023-01-17T12:29:24.033Z,0.70
2023-01-17T12:32:05.623Z,0.77
2023-01-17T12:34:38.766Z,0.80
2023-01-17T12:37:16.237Z,0.60
2023-01-17T12:39:49.541Z,0.90
2023-01-17T12:42:21.158Z,1.00
2023-01-17T12:44:57.833Z,2.30
2023-01-17T12:47:26.535Z,2.10
2023-01-17T12:50:03.839Z,2.15
2023-01-17T12:52:42.443Z,1.42
2023-01-17T12:55:17.553Z,0.70
2023-01-17T12:57:48.711Z,0.70
2023-01-17T13:00:22.924Z,0.70
2023-01-17T13:02:54.930Z,1.00
2023-01-17T13:05:26.003Z,1.02
2023-01-17T13:08:01.938Z,1.20
2023-01-17T13:10:35.295Z,1.55
2023-01-17T13:13:12.729Z,1.42
2023-01-17T13:15:43.999Z,1.80
2023-01-17T13:18:17.317Z,1.10
2023-01-17T13:21:06.063Z,0.77
2023-01-17T13:23:48.844Z,1.23
2023-01-17T13:26:25.294Z,1.50
2023-01-17T13:29:01.853Z,1.10
2023-01-17T13:31:52.728Z,1.00
2023-01-17T13:34:46.191Z,1.27
2023-01-17T13:37:35.125Z,1.70
2023-01-17T13:40:29.621Z,0.70
2023-01-17T13:42:59.978Z,0.80
2023-01-17T13:45:30.514Z,1.83
2023-01-17T13:48:30.838Z,1.27
2023-01-17T13:51:00.190Z,1.23
2023-01-17T13:53:48.082Z,2.08
2023-01-17T13:56:24.799Z,0.73
2023-01-17T13:58:59.102Z,1.40
2023-01-17T14:01:55.293Z,1.20
2023-01-17T14:04:25.848Z,1.10
2023-01-17T14:06:56.653Z,0.85
2023-01-17T14:09:28.611Z,1.92
2023-01-17T14:12:07.824Z,1.15
2023-01-17T14:14:37.424Z,1.33
2023-01-17T14:17:37.564Z,1.25
2023-01-17T14:20:44.828Z,1.95
2023-01-17T14:23:26.868Z,2.15
2023-01-17T14:25:56.774Z,1.70
2023-01-17T14:28:30.839Z,1.08
2023-01-17T14:31:00.520Z,1.70
2023-01-17T14:33:30.201Z,1.58
2023-01-17T14:36:01.828Z,1.75
2023-01-17T14:38:32.021Z,1.40
2023-01-17T14:41:03.404Z,1.50
2023-01-17T14:43:34.716Z,1.90
2023-01-17T14:46:04.966Z,2.00
2023-01-17T14:48:32.722Z,1.02
2023-01-17T14:51:01.761Z,1.23
2023-01-17T14:53:31.858Z,1.65
2023-01-17T14:56:01.802Z,1.58
2023-01-17T14:58:31.296Z,1.20
2023-01-17T15:01:01.662Z,1.05
2023-01-17T15:03:31.441Z,1.00
2023-01-17T15:06:07.214Z,0.98
2023-01-17T15:08:36.781Z,1.73
2023-01-17T15:11:08.099Z,1.02
2023-01-17T15:13:44.830Z,0.95
2023-01-17T15:16:20.449Z,1.20
2023-01-17T15:18:48.677Z,1.15
2023-01-17T15:21:19.326Z,0.90
2023-01-17T15:23:51.217Z,1.17
2023-01-17T15:26:22.034Z,1.10
2023-01-17T15:28:50.010Z,1.40
2023-01-17T15:31:22.024Z,1.48
2023-01-17T15:33:53.607Z,1.50
2023-01-17T15:36:30.016Z,1.45
2023-01-17T15:39:01.454Z,1.63
2023-01-17T15:41:32.467Z,2.35
2023-01-17T15:44:00.931Z,1.92
2023-01-17T15:46:33.873Z,1.80
2023-01-17T15:49:17.514Z,2.13
2023-01-17T15:51:51.416Z,1.88
2023-01-17T15:54:33.452Z,1.67
2023-01-17T15:57:18.610Z,1.25
2023-01-17T15:59:51.816Z,0.98
2023-01-17T16:02:38.620Z,1.55
2023-01-17T16:05:33.083Z,1.63
2023-01-17T16:08:24.240Z,1.40
2023-01-17T16:10:56.671Z,1.23
2023-01-17T16:13:24.418Z,1.17
2023-01-17T16:15:52.053Z,1.25
2023-01-17T16:18:22.940Z,1.52
2023-01-17T16:20:56.125Z,1.50
2023-01-17T16:23:23.808Z,1.98
2023-01-17T16:25:51.448Z,1.63
2023-01-17T16:28:20.446Z,1.90
2023-01-17T16:30:49.104Z,1.77
2023-01-17T16:33:16.902Z,1.83
2023-01-17T16:35:44.448Z,2.00
2023-01-17T16:38:13.991Z,1.67
2023-01-17T16:40:43.747Z,1.88
2023-01-17T16:43:12.473Z,1.85
2023-01-17T16:45:42.953Z,2.42
2023-01-17T16:48:11.390Z,2.33
2023-01-17T16:50:42.270Z,1.95
2023-01-17T16:53:09.993Z,2.92
2023-01-17T16:55:38.024Z,4.10
2023-01-17T16:58:05.541Z,4.10
2023-01-17T17:00:33.157Z,3.17
2023-01-17T17:03:02.151Z,3.50
2023-01-17T17:05:30.598Z,3.28
2023-01-17T17:07:58.134Z,3.60
2023-01-17T17:10:27.531Z,3.25
2023-01-17T17:12:55.111Z,3.85
2023-01-17T17:15:22.668Z,3.97
2023-01-17T17:17:51.046Z,4.00
2023-01-17T17:20:20.162Z,3.70
2023-01-17T17:22:51.493Z,3.95
2023-01-17T17:25:19.833Z,4.13
2023-01-17T17:27:47.396Z,3.25
2023-01-17T17:30:15.497Z,3.67
2023-01-17T17:32:47.477Z,3.55
2023-01-17T17:35:15.410Z,3.47
2023-01-17T17:37:44.608Z,4.85
2023-01-17T17:40:12.555Z,3.78
2023-01-17T17:42:40.115Z,3.80
2023-01-17T17:45:08.332Z,3.55
2023-01-17T17:47:35.969Z,3.80
2023-01-17T17:50:03.798Z,3.58
2023-01-17T17:52:32.372Z,3.90
2023-01-17T17:55:01.623Z,3.75
2023-01-17T17:57:29.265Z,3.55
2023-01-17T17:59:59.532Z,3.78
2023-01-17T18:02:27.152Z,3.80
2023-01-17T18:04:54.975Z,3.85
2023-01-17T18:07:22.692Z,4.75
2023-01-17T18:09:50.430Z,3.20
2023-01-17T18:12:19.554Z,3.53
2023-01-17T18:14:47.141Z,3.97
2023-01-17T18:17:15.230Z,4.88
2023-01-17T18:19:46.001Z,4.50
2023-01-17T18:22:13.578Z,4.28
2023-01-17T18:24:41.274Z,4.05
2023-01-17T18:27:10.354Z,3.58
2023-01-17T18:29:39.842Z,4.05
2023-01-17T18:32:07.732Z,4.40
2023-01-17T18:34:35.760Z,4.43
2023-01-17T18:37:03.480Z,4.60
2023-01-17T18:39:31.528Z,4.03
2023-01-17T18:41:59.417Z,4.15
2023-01-17T18:44:27.705Z,4.35
2023-01-17T18:47:01.808Z,4.05
2023-01-17T18:49:29.346Z,4.13
2023-01-17T18:51:56.925Z,4.35
2023-01-17T18:54:24.581Z,4.65
2023-01-17T18:56:52.616Z,4.50
2023-01-17T18:59:21.361Z,5.70
2023-01-17T19:01:48.997Z,5.00
2023-01-17T19:04:18.821Z,4.43
2023-01-17T19:06:48.229Z,4.88
2023-01-17T19:09:17.156Z,4.97
2023-01-17T19:11:46.115Z,4.75
2023-01-17T19:14:14.382Z,4.47
2023-01-17T19:16:42.995Z,4.68
2023-01-17T19:19:12.996Z,4.72
2023-01-17T19:21:42.042Z,5.40
2023-01-17T19:24:13.037Z,5.18
2023-01-17T19:26:41.088Z,5.30
2023-01-17T19:29:08.694Z,5.70
2023-01-17T19:31:39.657Z,4.65
2023-01-17T19:34:07.411Z,5.35
2023-01-17T19:36:36.575Z,5.40
2023-01-17T19:39:09.464Z,5.55
2023-01-17T19:41:38.630Z,5.68
2023-01-17T19:44:07.778Z,5.70
2023-01-17T19:46:36.244Z,5.80
2023-01-17T19:49:05.431Z,5.60
2023-01-17T19:51:33.067Z,6.10
2023-01-17T19:54:01.306Z,6.43
2023-01-17T19:56:31.340Z,5.75
2023-01-17T19:59:01.188Z,6.10
2023-01-17T20:01:30.992Z,5.93
2023-01-17T20:03:59.956Z,5.80
2023-01-17T20:06:29.176Z,6.05
2023-01-17T20:08:57.058Z,5.07
2023-01-17T20:11:26.138Z,5.75
2023-01-17T20:13:56.756Z,6.03
2023-01-17T20:16:25.993Z,6.55
2023-01-17T20:18:53.787Z,6.75
2023-01-17T20:21:22.969Z,6.05
2023-01-17T20:23:51.950Z,5.78
2023-01-17T20:26:21.465Z,6.00
2023-01-17T20:28:51.322Z,7.53
2023-01-17T20:31:22.634Z,7.03
2023-01-17T20:33:54.135Z,7.13
2023-01-17T20:36:23.620Z,6.20
2023-01-17T20:38:53.192Z,6.72
2023-01-17T20:41:22.483Z,5.97
2023-01-17T20:43:52.396Z,5.68
2023-01-17T20:46:23.474Z,6.07
2023-01-17T20:48:52.579Z,5.20
2023-01-17T20:51:21.515Z,5.18
2023-01-17T20:53:52.583Z,6.28
2023-01-17T20:56:20.670Z,6.13
2023-01-17T20:58:49.571Z,6.05
2023-01-17T21:01:21.084Z,6.00
2023-01-17T21:03:53.319Z,5.75
2023-01-17T21:06:22.816Z,6.15
2023-01-17T21:08:50.764Z,5.70
2023-01-17T21:11:20.357Z,5.43
2023-01-17T21:13:48.693Z,4.82
2023-01-17T21:16:17.788Z,4.85
2023-01-17T21:18:47.817Z,5.85
2023-01-17T21:21:18.146Z,5.53
2023-01-17T21:23:46.668Z,5.18
2023-01-17T21:26:16.140Z,5.18
2023-01-17T21:28:45.881Z,4.93
2023-01-17T21:31:22.839Z,4.60
2023-01-17T21:33:52.196Z,4.88
2023-01-17T21:36:23.189Z,5.13
2023-01-17T21:38:52.416Z,4.65
2023-01-17T21:41:20.797Z,4.30
2023-01-17T21:43:48.356Z,5.03
2023-01-17T21:46:16.181Z,5.07
2023-01-17T21:48:45.894Z,5.57
2023-01-17T21:51:13.495Z,4.75
2023-01-17T21:53:42.453Z,5.63
2023-01-17T21:56:31.224Z,5.45
2023-01-17T21:58:59.719Z,5.22
2023-01-17T22:01:29.761Z,5.65
2023-01-17T22:03:58.999Z,6.28
2023-01-17T22:06:28.302Z,5.90
2023-01-17T22:08:57.242Z,6.28
2023-01-17T22:11:26.890Z,5.30
2023-01-17T22:13:55.189Z,5.55
2023-01-17T22:16:25.750Z,4.72
2023-01-17T22:18:53.410Z,5.30
2023-01-17T22:21:23.209Z,5.13
2023-01-17T22:23:52.784Z,5.20
2023-01-17T22:26:23.323Z,4.95
2023-01-17T22:28:51.191Z,4.88
2023-01-17T22:31:20.678Z,4.70
2023-01-17T22:33:52.479Z,4.85
2023-01-17T22:36:20.355Z,4.70
2023-01-17T22:38:48.046Z,5.00
2023-01-17T22:41:18.020Z,4.63
2023-01-17T22:43:49.004Z,5.75
2023-01-17T22:46:18.952Z,4.65
2023-01-17T22:48:46.855Z,5.40
2023-01-17T22:51:16.713Z,5.03
2023-01-17T22:53:45.754Z,5.72
2023-01-17T22:56:15.356Z,5.97
2023-01-17T22:58:44.815Z,6.18
2023-01-17T23:01:15.924Z,6.10
2023-01-17T23:03:44.593Z,6.38
2023-01-17T23:06:14.474Z,6.70
2023-01-17T23:08:44.352Z,6.20
2023-01-17T23:11:43.537Z,6.55
2023-01-17T23:14:14.703Z,7.28
2023-01-17T23:17:04.507Z,6.80
2023-01-17T23:19:34.612Z,6.95
2023-01-17T23:22:20.031Z,7.13
2023-01-17T23:24:50.130Z,7.28
2023-01-17T23:27:37.457Z,6.70
2023-01-17T23:30:07.173Z,6.53
2023-01-17T23:32:36.037Z,6.95
2023-01-17T23:35:03.702Z,6.68
2023-01-17T23:37:46.231Z,6.55
2023-01-17T23:40:13.944Z,7.57
2023-01-17T23:42:59.780Z,7.40
2023-01-17T23:45:27.495Z,7.82
2023-01-17T23:47:56.535Z,7.63
2023-01-17T23:50:24.058Z,7.07
2023-01-17T23:52:51.793Z,7.65
2023-01-17T23:55:19.428Z,7.95
2023-01-17T23:57:49.862Z,7.47
